sensor_id;sensor_type;location;lat;lon;timestamp;temperature;humidity
52127;DHT22;38120;53.176;6.614;2023-04-24T00:02:05;11.10;99.90
52127;DHT22;38120;53.176;6.614;2023-04-24T00:04:38;11.20;99.90
52127;DHT22;38120;53.176;6.614;2023-04-24T00:07:07;11.10;99.90
52127;DHT22;38120;53.176;6.614;2023-04-24T00:09:39;11.10;99.90
52127;DHT22;38120;53.176;6.614;2023-04-24T00:12:04;11.10;99.90
52127;DHT22;38120;53.176;6.614;2023-04-24T00:15:04;11.10;99.90
52127;DHT22;38120;53.176;6.614;2023-04-24T00:17:30;11.10;99.90
52127;DHT22;38120;53.176;6.614;2023-04-24T00:20:17;11.10;99.90
52127;DHT22;38120;53.176;6.614;2023-04-24T00:22:44;11.00;99.90
52127;DHT22;38120;53.176;6.614;2023-04-24T00:25:10;11.00;99.90
52127;DHT22;38120;53.176;6.614;2023-04-24T00:27:35;10.90;99.90
52127;DHT22;38120;53.176;6.614;2023-04-24T00:30:03;10.90;99.90
52127;DHT22;38120;53.176;6.614;2023-04-24T00:32:28;10.70;99.90
52127;DHT22;38120;53.176;6.614;2023-04-24T00:34:54;10.70;99.90
52127;DHT22;38120;53.176;6.614;2023-04-24T00:37:20;10.60;99.90
52127;DHT22;38120;53.176;6.614;2023-04-24T00:39:45;10.60;99.90
52127;DHT22;38120;53.176;6.614;2023-04-24T00:42:17;10.60;99.90
52127;DHT22;38120;53.176;6.614;2023-04-24T00:44:43;10.50;99.90
52127;DHT22;38120;53.176;6.614;2023-04-24T00:47:09;10.50;99.90
52127;DHT22;38120;53.176;6.614;2023-04-24T00:49:36;10.50;99.90
52127;DHT22;38120;53.176;6.614;2023-04-24T00:52:04;10.50;99.90
52127;DHT22;38120;53.176;6.614;2023-04-24T00:54:37;10.40;99.90
52127;DHT22;38120;53.176;6.614;2023-04-24T00:57:03;10.40;99.90
52127;DHT22;38120;53.176;6.614;2023-04-24T00:59:44;10.40;99.90
52127;DHT22;38120;53.176;6.614;2023-04-24T01:02:10;10.30;99.90
52127;DHT22;38120;53.176;6.614;2023-04-24T01:04:37;10.30;99.90
52127;DHT22;38120;53.176;6.614;2023-04-24T01:07:03;10.30;99.90
52127;DHT22;38120;53.176;6.614;2023-04-24T01:09:30;10.30;99.90
52127;DHT22;38120;53.176;6.614;2023-04-24T01:11:55;10.30;99.90
52127;DHT22;38120;53.176;6.614;2023-04-24T01:14:22;10.20;99.90
52127;DHT22;38120;53.176;6.614;2023-04-24T01:16:48;10.30;99.90
52127;DHT22;38120;53.176;6.614;2023-04-24T01:19:15;10.20;99.90
52127;DHT22;38120;53.176;6.614;2023-04-24T01:21:43;10.20;99.90
52127;DHT22;38120;53.176;6.614;2023-04-24T01:24:10;10.20;99.90
52127;DHT22;38120;53.176;6.614;2023-04-24T01:26:35;10.10;99.90
52127;DHT22;38120;53.176;6.614;2023-04-24T01:29:01;10.20;99.90
52127;DHT22;38120;53.176;6.614;2023-04-24T01:31:27;10.20;99.90
52127;DHT22;38120;53.176;6.614;2023-04-24T01:33:54;10.20;99.90
52127;DHT22;38120;53.176;6.614;2023-04-24T01:36:41;10.20;99.90
52127;DHT22;38120;53.176;6.614;2023-04-24T01:39:18;10.20;99.90
52127;DHT22;38120;53.176;6.614;2023-04-24T01:41:46;10.10;99.90
52127;DHT22;38120;53.176;6.614;2023-04-24T01:44:12;10.20;99.90
52127;DHT22;38120;53.176;6.614;2023-04-24T01:46:38;10.20;99.90
52127;DHT22;38120;53.176;6.614;2023-04-24T01:49:04;10.10;99.90
52127;DHT22;38120;53.176;6.614;2023-04-24T01:51:29;10.10;99.90
52127;DHT22;38120;53.176;6.614;2023-04-24T01:53:55;10.10;99.90
52127;DHT22;38120;53.176;6.614;2023-04-24T01:56:22;9.50;99.90
52127;DHT22;38120;53.176;6.614;2023-04-24T01:58:49;10.10;99.90
52127;DHT22;38120;53.176;6.614;2023-04-24T02:01:20;10.40;99.90
52127;DHT22;38120;53.176;6.614;2023-04-24T02:03:45;10.10;99.90
52127;DHT22;38120;53.176;6.614;2023-04-24T02:06:11;10.10;99.90
52127;DHT22;38120;53.176;6.614;2023-04-24T02:08:37;10.10;99.90
52127;DHT22;38120;53.176;6.614;2023-04-24T02:11:03;10.00;99.90
52127;DHT22;38120;53.176;6.614;2023-04-24T02:13:28;10.00;99.90
52127;DHT22;38120;53.176;6.614;2023-04-24T02:15:54;10.00;99.90
52127;DHT22;38120;53.176;6.614;2023-04-24T02:18:20;10.00;99.90
52127;DHT22;38120;53.176;6.614;2023-04-24T02:20:46;10.00;99.90
52127;DHT22;38120;53.176;6.614;2023-04-24T02:23:12;9.90;99.90
52127;DHT22;38120;53.176;6.614;2023-04-24T02:25:39;10.00;99.90
52127;DHT22;38120;53.176;6.614;2023-04-24T02:28:04;9.90;99.90
52127;DHT22;38120;53.176;6.614;2023-04-24T02:30:30;10.00;99.90
52127;DHT22;38120;53.176;6.614;2023-04-24T02:32:56;10.00;99.90
52127;DHT22;38120;53.176;6.614;2023-04-24T02:35:39;10.00;99.90
52127;DHT22;38120;53.176;6.614;2023-04-24T02:38:17;10.00;99.90
52127;DHT22;38120;53.176;6.614;2023-04-24T02:40:51;10.00;99.90
52127;DHT22;38120;53.176;6.614;2023-04-24T02:43:16;10.00;99.90
52127;DHT22;38120;53.176;6.614;2023-04-24T02:45:45;9.90;99.90
52127;DHT22;38120;53.176;6.614;2023-04-24T02:48:13;10.00;99.90
52127;DHT22;38120;53.176;6.614;2023-04-24T02:50:38;10.00;99.90
52127;DHT22;38120;53.176;6.614;2023-04-24T02:53:04;10.00;99.90
52127;DHT22;38120;53.176;6.614;2023-04-24T02:55:35;10.60;99.90
52127;DHT22;38120;53.176;6.614;2023-04-24T02:58:01;10.00;99.90
52127;DHT22;38120;53.176;6.614;2023-04-24T03:00:27;10.00;99.90
52127;DHT22;38120;53.176;6.614;2023-04-24T03:02:55;10.00;99.90
52127;DHT22;38120;53.176;6.614;2023-04-24T03:05:21;10.00;99.90
52127;DHT22;38120;53.176;6.614;2023-04-24T03:07:49;10.00;99.90
52127;DHT22;38120;53.176;6.614;2023-04-24T03:10:15;10.10;99.90
52127;DHT22;38120;53.176;6.614;2023-04-24T03:12:43;10.00;99.90
52127;DHT22;38120;53.176;6.614;2023-04-24T03:15:09;10.00;99.90
52127;DHT22;38120;53.176;6.614;2023-04-24T03:17:35;10.00;99.90
52127;DHT22;38120;53.176;6.614;2023-04-24T03:20:01;10.60;99.90
52127;DHT22;38120;53.176;6.614;2023-04-24T03:22:27;10.10;99.90
52127;DHT22;38120;53.176;6.614;2023-04-24T03:24:52;10.00;99.90
52127;DHT22;38120;53.176;6.614;2023-04-24T03:27:18;10.00;99.90
52127;DHT22;38120;53.176;6.614;2023-04-24T03:29:46;10.10;99.90
52127;DHT22;38120;53.176;6.614;2023-04-24T03:32:12;10.10;99.90
52127;DHT22;38120;53.176;6.614;2023-04-24T03:34:38;10.00;99.90
52127;DHT22;38120;53.176;6.614;2023-04-24T03:37:03;10.10;99.90
52127;DHT22;38120;53.176;6.614;2023-04-24T03:39:29;10.00;99.90
52127;DHT22;38120;53.176;6.614;2023-04-24T03:41:55;10.00;99.90
52127;DHT22;38120;53.176;6.614;2023-04-24T03:44:21;10.00;99.90
52127;DHT22;38120;53.176;6.614;2023-04-24T03:46:47;9.90;99.90
52127;DHT22;38120;53.176;6.614;2023-04-24T03:49:12;9.90;99.90
52127;DHT22;38120;53.176;6.614;2023-04-24T03:51:40;9.90;99.90
52127;DHT22;38120;53.176;6.614;2023-04-24T03:54:15;9.90;99.90
52127;DHT22;38120;53.176;6.614;2023-04-24T03:56:41;10.00;99.90
52127;DHT22;38120;53.176;6.614;2023-04-24T03:59:06;9.90;99.90
52127;DHT22;38120;53.176;6.614;2023-04-24T04:01:32;9.80;99.90
52127;DHT22;38120;53.176;6.614;2023-04-24T04:04:11;9.90;99.90
52127;DHT22;38120;53.176;6.614;2023-04-24T04:06:36;9.90;99.90
52127;DHT22;38120;53.176;6.614;2023-04-24T04:09:02;9.80;99.90
52127;DHT22;38120;53.176;6.614;2023-04-24T04:11:28;9.90;99.90
52127;DHT22;38120;53.176;6.614;2023-04-24T04:13:54;9.80;99.90
52127;DHT22;38120;53.176;6.614;2023-04-24T04:16:20;9.80;99.90
52127;DHT22;38120;53.176;6.614;2023-04-24T04:18:45;9.90;99.90
52127;DHT22;38120;53.176;6.614;2023-04-24T04:21:11;9.80;99.90
52127;DHT22;38120;53.176;6.614;2023-04-24T04:23:37;9.80;99.90
52127;DHT22;38120;53.176;6.614;2023-04-24T04:26:09;9.80;99.90
52127;DHT22;38120;53.176;6.614;2023-04-24T04:28:34;9.80;99.90
52127;DHT22;38120;53.176;6.614;2023-04-24T04:31:04;9.80;99.90
52127;DHT22;38120;53.176;6.614;2023-04-24T04:33:30;9.80;99.90
52127;DHT22;38120;53.176;6.614;2023-04-24T04:35:56;9.80;99.90
52127;DHT22;38120;53.176;6.614;2023-04-24T04:38:24;9.80;99.90
52127;DHT22;38120;53.176;6.614;2023-04-24T04:40:52;9.80;99.90
52127;DHT22;38120;53.176;6.614;2023-04-24T04:43:25;9.80;99.90
52127;DHT22;38120;53.176;6.614;2023-04-24T04:45:51;9.90;99.90
52127;DHT22;38120;53.176;6.614;2023-04-24T04:48:17;9.80;99.90
52127;DHT22;38120;53.176;6.614;2023-04-24T04:50:44;9.80;99.90
52127;DHT22;38120;53.176;6.614;2023-04-24T04:53:10;9.80;99.90
52127;DHT22;38120;53.176;6.614;2023-04-24T04:55:36;10.00;99.90
52127;DHT22;38120;53.176;6.614;2023-04-24T04:58:02;9.80;99.90
52127;DHT22;38120;53.176;6.614;2023-04-24T05:00:28;9.70;99.90
52127;DHT22;38120;53.176;6.614;2023-04-24T05:03:01;9.70;99.90
52127;DHT22;38120;53.176;6.614;2023-04-24T05:05:30;9.70;99.90
52127;DHT22;38120;53.176;6.614;2023-04-24T05:08:22;10.60;99.90
52127;DHT22;38120;53.176;6.614;2023-04-24T05:10:47;9.70;99.90
52127;DHT22;38120;53.176;6.614;2023-04-24T05:13:13;9.70;99.90
52127;DHT22;38120;53.176;6.614;2023-04-24T05:15:39;9.70;99.90
52127;DHT22;38120;53.176;6.614;2023-04-24T05:18:05;9.70;99.90
52127;DHT22;38120;53.176;6.614;2023-04-24T05:20:31;9.70;99.90
52127;DHT22;38120;53.176;6.614;2023-04-24T05:22:56;9.70;99.90
52127;DHT22;38120;53.176;6.614;2023-04-24T05:25:24;9.70;99.90
52127;DHT22;38120;53.176;6.614;2023-04-24T05:27:50;9.70;99.90
52127;DHT22;38120;53.176;6.614;2023-04-24T05:30:23;9.70;99.90
52127;DHT22;38120;53.176;6.614;2023-04-24T05:32:58;9.80;99.90
52127;DHT22;38120;53.176;6.614;2023-04-24T05:35:23;9.80;99.90
52127;DHT22;38120;53.176;6.614;2023-04-24T05:37:49;9.80;99.90
52127;DHT22;38120;53.176;6.614;2023-04-24T05:40:15;9.80;99.90
52127;DHT22;38120;53.176;6.614;2023-04-24T05:42:41;9.90;99.90
52127;DHT22;38120;53.176;6.614;2023-04-24T05:45:07;9.90;99.90
52127;DHT22;38120;53.176;6.614;2023-04-24T05:47:33;9.90;99.90
52127;DHT22;38120;53.176;6.614;2023-04-24T05:49:59;9.90;99.90
52127;DHT22;38120;53.176;6.614;2023-04-24T05:52:25;9.90;99.90
52127;DHT22;38120;53.176;6.614;2023-04-24T05:54:51;9.40;99.90
52127;DHT22;38120;53.176;6.614;2023-04-24T05:57:17;10.00;99.90
52127;DHT22;38120;53.176;6.614;2023-04-24T05:59:43;10.00;99.90
52127;DHT22;38120;53.176;6.614;2023-04-24T06:02:14;10.10;99.90
52127;DHT22;38120;53.176;6.614;2023-04-24T06:04:39;10.10;99.90
52127;DHT22;38120;53.176;6.614;2023-04-24T06:07:07;10.10;99.90
52127;DHT22;38120;53.176;6.614;2023-04-24T06:09:39;10.10;99.90
52127;DHT22;38120;53.176;6.614;2023-04-24T06:12:04;10.10;99.90
52127;DHT22;38120;53.176;6.614;2023-04-24T06:14:32;10.10;99.90
52127;DHT22;38120;53.176;6.614;2023-04-24T06:16:58;10.00;99.90
52127;DHT22;38120;53.176;6.614;2023-04-24T06:19:24;9.90;99.90
52127;DHT22;38120;53.176;6.614;2023-04-24T06:21:50;9.90;99.90
52127;DHT22;38120;53.176;6.614;2023-04-24T06:24:15;10.00;99.90
52127;DHT22;38120;53.176;6.614;2023-04-24T06:26:48;9.90;99.90
52127;DHT22;38120;53.176;6.614;2023-04-24T06:29:16;9.90;99.90
52127;DHT22;38120;53.176;6.614;2023-04-24T06:31:42;9.90;99.90
52127;DHT22;38120;53.176;6.614;2023-04-24T06:34:08;9.90;99.90
52127;DHT22;38120;53.176;6.614;2023-04-24T06:36:34;9.90;99.90
52127;DHT22;38120;53.176;6.614;2023-04-24T06:39:04;9.90;99.90
52127;DHT22;38120;53.176;6.614;2023-04-24T06:41:30;9.90;99.90
52127;DHT22;38120;53.176;6.614;2023-04-24T06:43:55;9.90;99.90
52127;DHT22;38120;53.176;6.614;2023-04-24T06:46:21;9.90;99.90
52127;DHT22;38120;53.176;6.614;2023-04-24T06:48:54;9.90;99.90
52127;DHT22;38120;53.176;6.614;2023-04-24T06:51:23;9.90;99.90
52127;DHT22;38120;53.176;6.614;2023-04-24T06:53:49;10.00;99.90
52127;DHT22;38120;53.176;6.614;2023-04-24T06:56:15;9.90;99.90
52127;DHT22;38120;53.176;6.614;2023-04-24T06:58:42;9.90;99.90
52127;DHT22;38120;53.176;6.614;2023-04-24T07:01:07;9.90;99.90
52127;DHT22;38120;53.176;6.614;2023-04-24T07:03:51;9.80;99.90
52127;DHT22;38120;53.176;6.614;2023-04-24T07:06:17;9.90;99.90
52127;DHT22;38120;53.176;6.614;2023-04-24T07:08:44;9.90;99.90
52127;DHT22;38120;53.176;6.614;2023-04-24T07:11:12;9.70;99.90
52127;DHT22;38120;53.176;6.614;2023-04-24T07:13:37;9.80;99.90
52127;DHT22;38120;53.176;6.614;2023-04-24T07:16:14;9.80;99.90
52127;DHT22;38120;53.176;6.614;2023-04-24T07:18:39;9.80;99.90
52127;DHT22;38120;53.176;6.614;2023-04-24T07:21:05;9.80;99.90
52127;DHT22;38120;53.176;6.614;2023-04-24T07:23:32;9.80;99.90
52127;DHT22;38120;53.176;6.614;2023-04-24T07:25:58;9.70;99.90
52127;DHT22;38120;53.176;6.614;2023-04-24T07:28:24;9.70;99.90
52127;DHT22;38120;53.176;6.614;2023-04-24T07:30:50;9.70;99.90
52127;DHT22;38120;53.176;6.614;2023-04-24T07:33:15;9.70;99.90
52127;DHT22;38120;53.176;6.614;2023-04-24T07:35:41;9.70;99.90
52127;DHT22;38120;53.176;6.614;2023-04-24T07:38:07;9.70;99.90
52127;DHT22;38120;53.176;6.614;2023-04-24T07:40:33;9.70;99.90
52127;DHT22;38120;53.176;6.614;2023-04-24T07:43:08;10.80;99.90
52127;DHT22;38120;53.176;6.614;2023-04-24T07:45:34;9.70;99.90
52127;DHT22;38120;53.176;6.614;2023-04-24T07:48:03;9.70;99.90
52127;DHT22;38120;53.176;6.614;2023-04-24T07:50:34;9.70;99.90
52127;DHT22;38120;53.176;6.614;2023-04-24T07:53:12;9.70;99.90
52127;DHT22;38120;53.176;6.614;2023-04-24T07:55:38;9.70;99.90
52127;DHT22;38120;53.176;6.614;2023-04-24T07:58:04;9.70;99.90
52127;DHT22;38120;53.176;6.614;2023-04-24T08:00:29;9.70;99.90
52127;DHT22;38120;53.176;6.614;2023-04-24T08:02:55;9.60;99.90
52127;DHT22;38120;53.176;6.614;2023-04-24T08:05:22;9.70;99.90
52127;DHT22;38120;53.176;6.614;2023-04-24T08:07:47;9.50;99.90
52127;DHT22;38120;53.176;6.614;2023-04-24T08:10:15;9.50;99.90
52127;DHT22;38120;53.176;6.614;2023-04-24T08:12:41;9.50;99.90
52127;DHT22;38120;53.176;6.614;2023-04-24T08:15:07;9.50;99.90
52127;DHT22;38120;53.176;6.614;2023-04-24T08:17:34;9.40;99.90
52127;DHT22;38120;53.176;6.614;2023-04-24T08:20:01;9.40;99.90
52127;DHT22;38120;53.176;6.614;2023-04-24T08:22:27;9.40;99.90
52127;DHT22;38120;53.176;6.614;2023-04-24T08:24:54;9.40;99.90
52127;DHT22;38120;53.176;6.614;2023-04-24T08:27:20;9.30;99.90
52127;DHT22;38120;53.176;6.614;2023-04-24T08:29:45;10.30;99.90
52127;DHT22;38120;53.176;6.614;2023-04-24T08:32:11;9.40;99.90
52127;DHT22;38120;53.176;6.614;2023-04-24T08:34:37;9.30;99.90
52127;DHT22;38120;53.176;6.614;2023-04-24T08:37:03;9.30;99.90
52127;DHT22;38120;53.176;6.614;2023-04-24T08:39:29;9.30;99.90
52127;DHT22;38120;53.176;6.614;2023-04-24T08:41:55;9.20;99.90
52127;DHT22;38120;53.176;6.614;2023-04-24T08:44:21;9.20;99.90
52127;DHT22;38120;53.176;6.614;2023-04-24T08:46:50;9.20;99.90
52127;DHT22;38120;53.176;6.614;2023-04-24T08:49:17;9.20;99.90
52127;DHT22;38120;53.176;6.614;2023-04-24T08:51:44;9.20;99.90
52127;DHT22;38120;53.176;6.614;2023-04-24T08:54:12;8.50;99.90
52127;DHT22;38120;53.176;6.614;2023-04-24T08:56:38;9.10;99.90
52127;DHT22;38120;53.176;6.614;2023-04-24T08:59:06;9.10;99.90
52127;DHT22;38120;53.176;6.614;2023-04-24T09:01:33;9.10;99.90
52127;DHT22;38120;53.176;6.614;2023-04-24T09:04:03;9.00;99.90
52127;DHT22;38120;53.176;6.614;2023-04-24T09:06:30;9.00;99.90
52127;DHT22;38120;53.176;6.614;2023-04-24T09:09:00;9.60;99.90
52127;DHT22;38120;53.176;6.614;2023-04-24T09:11:27;9.00;99.90
52127;DHT22;38120;53.176;6.614;2023-04-24T09:13:59;8.90;99.90
52127;DHT22;38120;53.176;6.614;2023-04-24T09:16:26;8.90;99.90
52127;DHT22;38120;53.176;6.614;2023-04-24T09:18:53;8.80;99.90
52127;DHT22;38120;53.176;6.614;2023-04-24T09:21:21;8.80;99.90
52127;DHT22;38120;53.176;6.614;2023-04-24T09:23:58;8.70;99.90
52127;DHT22;38120;53.176;6.614;2023-04-24T09:26:31;8.80;99.90
52127;DHT22;38120;53.176;6.614;2023-04-24T09:28:58;8.70;99.90
52127;DHT22;38120;53.176;6.614;2023-04-24T09:31:27;8.70;99.90
52127;DHT22;38120;53.176;6.614;2023-04-24T09:33:59;8.90;99.90
52127;DHT22;38120;53.176;6.614;2023-04-24T09:36:30;8.80;99.90
52127;DHT22;38120;53.176;6.614;2023-04-24T09:39:15;8.90;99.90
52127;DHT22;38120;53.176;6.614;2023-04-24T09:41:55;8.90;99.90
52127;DHT22;38120;53.176;6.614;2023-04-24T09:44:27;8.90;99.90
52127;DHT22;38120;53.176;6.614;2023-04-24T09:46:58;9.20;99.90
52127;DHT22;38120;53.176;6.614;2023-04-24T09:49:25;9.00;99.90
52127;DHT22;38120;53.176;6.614;2023-04-24T09:51:51;9.00;99.90
52127;DHT22;38120;53.176;6.614;2023-04-24T09:54:21;9.00;99.90
52127;DHT22;38120;53.176;6.614;2023-04-24T09:56:48;9.00;99.90
52127;DHT22;38120;53.176;6.614;2023-04-24T09:59:16;8.90;99.90
52127;DHT22;38120;53.176;6.614;2023-04-24T10:01:42;8.90;99.90
52127;DHT22;38120;53.176;6.614;2023-04-24T10:04:22;8.90;99.90
52127;DHT22;38120;53.176;6.614;2023-04-24T10:06:49;9.00;99.90
52127;DHT22;38120;53.176;6.614;2023-04-24T10:09:17;9.10;99.90
52127;DHT22;38120;53.176;6.614;2023-04-24T10:11:44;9.20;99.90
52127;DHT22;38120;53.176;6.614;2023-04-24T10:14:14;9.30;99.90
52127;DHT22;38120;53.176;6.614;2023-04-24T10:16:43;9.40;99.90
52127;DHT22;38120;53.176;6.614;2023-04-24T10:19:09;9.60;99.90
52127;DHT22;38120;53.176;6.614;2023-04-24T10:21:36;9.70;99.90
52127;DHT22;38120;53.176;6.614;2023-04-24T10:24:11;9.80;99.90
52127;DHT22;38120;53.176;6.614;2023-04-24T10:26:38;9.90;99.90
52127;DHT22;38120;53.176;6.614;2023-04-24T10:29:06;9.90;99.90
52127;DHT22;38120;53.176;6.614;2023-04-24T10:31:36;10.20;99.90
52127;DHT22;38120;53.176;6.614;2023-04-24T10:34:04;10.10;99.90
52127;DHT22;38120;53.176;6.614;2023-04-24T10:36:31;10.20;99.90
52127;DHT22;38120;53.176;6.614;2023-04-24T10:39:00;10.10;99.90
52127;DHT22;38120;53.176;6.614;2023-04-24T10:41:26;10.10;99.90
52127;DHT22;38120;53.176;6.614;2023-04-24T10:44:09;10.10;99.90
52127;DHT22;38120;53.176;6.614;2023-04-24T10:46:36;10.00;99.90
52127;DHT22;38120;53.176;6.614;2023-04-24T10:49:06;10.10;99.90
52127;DHT22;38120;53.176;6.614;2023-04-24T10:51:53;10.10;99.90
52127;DHT22;38120;53.176;6.614;2023-04-24T10:54:29;10.20;99.90
52127;DHT22;38120;53.176;6.614;2023-04-24T10:59:52;10.40;99.90
52127;DHT22;38120;53.176;6.614;2023-04-24T11:02:38;10.40;99.90
52127;DHT22;38120;53.176;6.614;2023-04-24T11:05:06;10.40;99.90
52127;DHT22;38120;53.176;6.614;2023-04-24T11:10:50;10.30;99.90
52127;DHT22;38120;53.176;6.614;2023-04-24T11:13:23;10.10;99.90
52127;DHT22;38120;53.176;6.614;2023-04-24T11:16:15;9.90;99.90
52127;DHT22;38120;53.176;6.614;2023-04-24T11:18:44;9.90;99.90
52127;DHT22;38120;53.176;6.614;2023-04-24T11:21:19;9.80;99.90
52127;DHT22;38120;53.176;6.614;2023-04-24T11:23:46;9.70;99.90
52127;DHT22;38120;53.176;6.614;2023-04-24T11:26:21;9.70;99.90
52127;DHT22;38120;53.176;6.614;2023-04-24T11:28:49;9.80;99.90
52127;DHT22;38120;53.176;6.614;2023-04-24T11:31:40;9.80;99.90
52127;DHT22;38120;53.176;6.614;2023-04-24T11:34:16;10.10;99.90
52127;DHT22;38120;53.176;6.614;2023-04-24T11:36:46;10.10;99.90
52127;DHT22;38120;53.176;6.614;2023-04-24T11:39:12;10.20;99.90
52127;DHT22;38120;53.176;6.614;2023-04-24T11:41:38;10.10;99.90
52127;DHT22;38120;53.176;6.614;2023-04-24T11:44:06;10.00;99.90
52127;DHT22;38120;53.176;6.614;2023-04-24T11:46:32;9.90;99.90
52127;DHT22;38120;53.176;6.614;2023-04-24T11:48:59;9.90;99.90
52127;DHT22;38120;53.176;6.614;2023-04-24T11:51:27;10.00;99.90
52127;DHT22;38120;53.176;6.614;2023-04-24T11:53:54;10.20;99.90
52127;DHT22;38120;53.176;6.614;2023-04-24T11:56:24;10.20;99.90
52127;DHT22;38120;53.176;6.614;2023-04-24T11:58:53;10.20;99.90
52127;DHT22;38120;53.176;6.614;2023-04-24T12:01:26;10.20;99.90
52127;DHT22;38120;53.176;6.614;2023-04-24T12:03:59;10.10;99.90
52127;DHT22;38120;53.176;6.614;2023-04-24T12:06:26;10.10;99.90
52127;DHT22;38120;53.176;6.614;2023-04-24T12:08:52;10.00;99.90
52127;DHT22;38120;53.176;6.614;2023-04-24T12:11:20;9.90;99.90
52127;DHT22;38120;53.176;6.614;2023-04-24T12:13:46;9.70;99.90
52127;DHT22;38120;53.176;6.614;2023-04-24T12:16:12;9.60;99.90
52127;DHT22;38120;53.176;6.614;2023-04-24T12:18:42;9.60;99.90
52127;DHT22;38120;53.176;6.614;2023-04-24T12:21:19;9.50;99.90
52127;DHT22;38120;53.176;6.614;2023-04-24T12:23:46;9.50;99.90
52127;DHT22;38120;53.176;6.614;2023-04-24T12:26:21;9.50;99.90
52127;DHT22;38120;53.176;6.614;2023-04-24T12:28:49;9.60;99.90
52127;DHT22;38120;53.176;6.614;2023-04-24T12:31:20;9.70;99.90
52127;DHT22;38120;53.176;6.614;2023-04-24T12:33:46;9.80;99.90
52127;DHT22;38120;53.176;6.614;2023-04-24T12:36:12;9.80;99.90
52127;DHT22;38120;53.176;6.614;2023-04-24T12:38:38;10.00;99.90
52127;DHT22;38120;53.176;6.614;2023-04-24T12:41:11;10.10;99.90
52127;DHT22;38120;53.176;6.614;2023-04-24T12:43:37;10.10;99.90
52127;DHT22;38120;53.176;6.614;2023-04-24T12:46:04;10.10;99.90
52127;DHT22;38120;53.176;6.614;2023-04-24T12:48:30;10.30;99.90
52127;DHT22;38120;53.176;6.614;2023-04-24T12:51:00;10.20;99.90
52127;DHT22;38120;53.176;6.614;2023-04-24T12:53:28;10.00;99.90
52127;DHT22;38120;53.176;6.614;2023-04-24T12:55:57;9.90;99.90
52127;DHT22;38120;53.176;6.614;2023-04-24T12:58:23;9.90;99.90
52127;DHT22;38120;53.176;6.614;2023-04-24T13:00:49;9.90;99.90
52127;DHT22;38120;53.176;6.614;2023-04-24T13:03:15;9.90;99.90
52127;DHT22;38120;53.176;6.614;2023-04-24T13:05:42;9.80;99.90
52127;DHT22;38120;53.176;6.614;2023-04-24T13:08:09;9.90;99.90
52127;DHT22;38120;53.176;6.614;2023-04-24T13:10:35;9.80;99.90
52127;DHT22;38120;53.176;6.614;2023-04-24T13:13:01;9.60;99.90
52127;DHT22;38120;53.176;6.614;2023-04-24T13:15:26;9.50;99.90
52127;DHT22;38120;53.176;6.614;2023-04-24T13:17:52;9.50;99.90
52127;DHT22;38120;53.176;6.614;2023-04-24T13:20:18;9.40;99.90
52127;DHT22;38120;53.176;6.614;2023-04-24T13:22:44;9.40;99.90
52127;DHT22;38120;53.176;6.614;2023-04-24T13:25:10;9.50;99.90
52127;DHT22;38120;53.176;6.614;2023-04-24T13:27:38;9.40;99.90
52127;DHT22;38120;53.176;6.614;2023-04-24T13:30:03;9.40;99.90
52127;DHT22;38120;53.176;6.614;2023-04-24T13:32:29;9.40;99.90
52127;DHT22;38120;53.176;6.614;2023-04-24T13:39:02;9.40;99.90
52127;DHT22;38120;53.176;6.614;2023-04-24T13:41:30;9.60;99.90
52127;DHT22;38120;53.176;6.614;2023-04-24T13:43:56;9.60;99.90
52127;DHT22;38120;53.176;6.614;2023-04-24T13:46:21;9.80;99.90
52127;DHT22;38120;53.176;6.614;2023-04-24T13:48:47;9.80;99.90
52127;DHT22;38120;53.176;6.614;2023-04-24T13:51:16;9.90;99.90
52127;DHT22;38120;53.176;6.614;2023-04-24T13:53:41;9.90;99.90
52127;DHT22;38120;53.176;6.614;2023-04-24T13:56:07;9.90;99.90
52127;DHT22;38120;53.176;6.614;2023-04-24T13:58:34;9.90;99.90
52127;DHT22;38120;53.176;6.614;2023-04-24T14:01:02;9.80;99.90
52127;DHT22;38120;53.176;6.614;2023-04-24T14:03:28;9.90;99.90
52127;DHT22;38120;53.176;6.614;2023-04-24T14:05:54;9.90;99.90
52127;DHT22;38120;53.176;6.614;2023-04-24T14:08:20;9.80;99.90
52127;DHT22;38120;53.176;6.614;2023-04-24T14:10:46;9.80;99.90
52127;DHT22;38120;53.176;6.614;2023-04-24T14:13:12;9.70;99.90
52127;DHT22;38120;53.176;6.614;2023-04-24T14:15:38;9.40;99.90
52127;DHT22;38120;53.176;6.614;2023-04-24T14:18:04;9.30;99.90
52127;DHT22;38120;53.176;6.614;2023-04-24T14:20:30;9.20;99.90
52127;DHT22;38120;53.176;6.614;2023-04-24T14:22:56;9.10;99.90
52127;DHT22;38120;53.176;6.614;2023-04-24T14:25:24;9.10;99.90
52127;DHT22;38120;53.176;6.614;2023-04-24T14:27:50;9.10;99.90
52127;DHT22;38120;53.176;6.614;2023-04-24T14:30:17;9.20;99.90
52127;DHT22;38120;53.176;6.614;2023-04-24T14:32:43;9.10;99.90
52127;DHT22;38120;53.176;6.614;2023-04-24T14:35:09;9.00;99.90
52127;DHT22;38120;53.176;6.614;2023-04-24T14:37:35;9.00;99.90
52127;DHT22;38120;53.176;6.614;2023-04-24T14:40:02;9.20;99.90
52127;DHT22;38120;53.176;6.614;2023-04-24T14:42:29;9.10;99.90
52127;DHT22;38120;53.176;6.614;2023-04-24T14:44:55;9.30;99.90
52127;DHT22;38120;53.176;6.614;2023-04-24T14:47:21;9.30;99.90
52127;DHT22;38120;53.176;6.614;2023-04-24T14:49:48;9.40;99.90
52127;DHT22;38120;53.176;6.614;2023-04-24T14:52:14;9.50;99.90
52127;DHT22;38120;53.176;6.614;2023-04-24T14:54:43;9.50;99.90
52127;DHT22;38120;53.176;6.614;2023-04-24T14:57:08;9.50;99.90
52127;DHT22;38120;53.176;6.614;2023-04-24T14:59:37;9.50;99.90
52127;DHT22;38120;53.176;6.614;2023-04-24T15:02:03;9.40;99.90
52127;DHT22;38120;53.176;6.614;2023-04-24T15:04:29;9.50;99.90
52127;DHT22;38120;53.176;6.614;2023-04-24T15:06:56;9.40;99.90
52127;DHT22;38120;53.176;6.614;2023-04-24T15:09:23;9.40;99.90
52127;DHT22;38120;53.176;6.614;2023-04-24T15:11:50;9.30;99.90
52127;DHT22;38120;53.176;6.614;2023-04-24T15:14:16;9.20;99.90
52127;DHT22;38120;53.176;6.614;2023-04-24T15:16:43;9.20;99.90
52127;DHT22;38120;53.176;6.614;2023-04-24T15:19:09;9.20;99.90
52127;DHT22;38120;53.176;6.614;2023-04-24T15:21:38;9.20;99.90
52127;DHT22;38120;53.176;6.614;2023-04-24T15:24:08;9.20;99.90
52127;DHT22;38120;53.176;6.614;2023-04-24T15:26:37;9.20;99.90
52127;DHT22;38120;53.176;6.614;2023-04-24T15:29:03;9.20;99.90
52127;DHT22;38120;53.176;6.614;2023-04-24T15:31:29;9.20;99.90
52127;DHT22;38120;53.176;6.614;2023-04-24T15:33:55;9.20;99.90
52127;DHT22;38120;53.176;6.614;2023-04-24T15:36:23;9.10;99.90
52127;DHT22;38120;53.176;6.614;2023-04-24T15:38:49;9.20;99.90
52127;DHT22;38120;53.176;6.614;2023-04-24T15:41:15;9.50;99.90
52127;DHT22;38120;53.176;6.614;2023-04-24T15:43:41;9.30;99.90
52127;DHT22;38120;53.176;6.614;2023-04-24T15:46:07;9.40;99.90
52127;DHT22;38120;53.176;6.614;2023-04-24T15:48:33;9.40;99.90
52127;DHT22;38120;53.176;6.614;2023-04-24T15:50:59;9.30;99.90
52127;DHT22;38120;53.176;6.614;2023-04-24T15:53:26;9.10;99.90
52127;DHT22;38120;53.176;6.614;2023-04-24T15:55:52;9.00;99.90